Time;durP1;ratioP1;P1;durP2;ratioP2;P2;SDS_P1;SDS_P2;PMS_P1;PMS_P2;Temp;Humidity;BMP_temperature;BMP_pressure;BME280_temperature;BME280_humidity;BME280_pressure;Samples;Min_cycle;Max_cycle;Signal;HPM_P1;HPM_P2
2022/07/31 00:00:06;;;;;;;;;0.50;0.00;;;;;23.83;47.24;101710.03;5094116;27;45488;-86
2022/07/31 00:02:32;;;;;;;;;1.00;1.00;;;;;23.82;47.50;101710.13;5093771;27;45869;-85
2022/07/31 00:04:57;;;;;;;;;0.75;0.75;;;;;23.76;47.16;101704.25;5077563;27;51053;-86
2022/07/31 00:07:22;;;;;;;;;1.00;1.00;;;;;23.73;47.92;101708.91;5076925;28;45356;-86
2022/07/31 00:09:47;;;;;;;;;1.00;1.00;;;;;23.68;47.73;101698.63;5076034;28;57687;-86
2022/07/31 00:12:13;;;;;;;;;2.00;0.25;;;;;23.61;47.54;101693.84;5075919;28;69659;-86
2022/07/31 00:14:38;;;;;;;;;0.75;0.75;;;;;23.57;47.56;101688.72;5076874;28;45410;-86
2022/07/31 00:17:04;;;;;;;;;0.00;0.00;;;;;23.57;47.62;101693.19;5076826;28;45430;-86
2022/07/31 00:19:29;;;;;;;;;0.25;0.25;;;;;23.58;47.67;101703.69;5076659;28;45487;-85
2022/07/31 00:21:55;;;;;;;;;0.25;0.00;;;;;23.52;47.95;101700.63;5075888;28;46274;-85
2022/07/31 00:24:21;;;;;;;;;2.00;1.00;;;;;23.51;47.54;101702.44;5076011;28;45494;-85
2022/07/31 00:26:46;;;;;;;;;1.75;1.00;;;;;23.46;47.88;101696.59;5076666;28;45328;-85
2022/07/31 00:29:11;;;;;;;;;0.00;0.00;;;;;23.47;47.99;101705.41;5093046;27;52694;-85
2022/07/31 00:31:37;;;;;;;;;1.00;1.00;;;;;23.35;48.63;101697.31;5076194;28;45347;-85
2022/07/31 00:34:02;;;;;;;;;0.00;0.00;;;;;23.34;47.84;101702.72;5110367;27;54781;-85
2022/07/31 00:36:27;;;;;;;;;0.00;0.00;;;;;23.36;48.20;101701.69;5110391;27;47064;-85
2022/07/31 00:38:53;;;;;;;;;0.00;0.00;;;;;23.33;48.80;101699.22;5077210;28;45549;-85
2022/07/31 00:41:18;;;;;;;;;1.00;0.50;;;;;23.32;48.18;101716.09;5092620;27;59723;-85
2022/07/31 00:43:43;;;;;;;;;0.00;0.00;;;;;23.28;48.24;101709.31;5076245;28;45260;-85
2022/07/31 00:46:09;;;;;;;;;1.00;0.75;;;;;23.21;48.77;101707.16;5110118;27;51540;-85
2022/07/31 00:48:34;;;;;;;;;1.00;0.00;;;;;23.13;48.74;101695.25;5110476;27;45326;-85
2022/07/31 00:51:00;;;;;;;;;0.50;0.50;;;;;23.15;49.16;101708.44;5110314;27;47006;-86
2022/07/31 00:53:25;;;;;;;;;1.00;0.00;;;;;23.09;49.14;101701.72;5110142;27;45281;-85
2022/07/31 00:55:51;;;;;;;;;1.00;1.00;;;;;23.10;49.10;101705.22;5110392;27;45423;-85
2022/07/31 00:58:16;;;;;;;;;0.00;0.00;;;;;23.02;49.08;101700.38;5110302;27;45370;-86
2022/07/31 01:00:41;;;;;;;;;0.00;0.00;;;;;22.95;49.83;101689.31;5109986;27;46400;-86
2022/07/31 01:03:07;;;;;;;;;0.00;0.00;;;;;22.92;49.70;101686.00;5092916;27;45538;-86
2022/07/31 01:05:32;;;;;;;;;0.00;0.00;;;;;22.90;49.27;101693.22;5075779;27;45739;-86
2022/07/31 01:07:57;;;;;;;;;0.00;0.00;;;;;22.99;49.42;101717.38;5077140;28;45580;-86
2022/07/31 01:10:32;;;;;;;;;2.50;0.75;;;;;22.97;49.67;101721.94;5075596;28;45549;-85
2022/07/31 01:13:01;;;;;;;;;0.75;0.75;;;;;22.83;50.26;101702.56;5077001;27;45732;-85
2022/07/31 01:15:27;;;;;;;;;1.00;1.00;;;;;22.79;50.27;101712.53;5076019;28;45390;-85
2022/07/31 01:17:54;;;;;;;;;1.25;0.50;;;;;22.73;49.91;101697.88;5075745;28;45432;-86
2022/07/31 01:20:19;;;;;;;;;2.25;1.00;;;;;22.71;50.42;101701.56;5075352;28;53931;-85
2022/07/31 01:22:54;;;;;;;;;1.75;1.25;;;;;22.80;50.93;101719.53;5075417;28;45219;-85
2022/07/31 01:25:38;;;;;;;;;2.50;2.50;;;;;22.76;50.93;101715.38;5075561;28;45404;-85
2022/07/31 01:28:09;;;;;;;;;1.25;1.25;;;;;22.77;50.40;101709.97;5076683;28;45436;-86
2022/07/31 01:31:01;;;;;;;;;4.00;2.75;;;;;22.74;50.53;101710.16;5076533;27;46503;-86
2022/07/31 01:33:32;;;;;;;;;2.75;1.75;;;;;22.73;50.18;101711.13;5109875;27;45440;-85
2022/07/31 01:36:10;;;;;;;;;1.00;0.75;;;;;22.67;50.47;101702.72;5092142;27;45328;-85
2022/07/31 01:38:38;;;;;;;;;1.50;1.50;;;;;22.77;50.31;101717.06;5109894;27;45366;-86
2022/07/31 01:41:07;;;;;;;;;1.75;1.75;;;;;22.73;50.47;101712.91;5076436;28;46275;-86
2022/07/31 01:43:36;;;;;;;;;2.25;2.25;;;;;22.77;50.36;101719.72;5109466;27;45433;-86
2022/07/31 01:46:03;;;;;;;;;2.50;2.50;;;;;22.74;50.27;101714.63;5075463;28;45431;-86
2022/07/31 01:48:31;;;;;;;;;3.00;3.00;;;;;22.62;50.81;101710.94;5075470;28;45411;-86
2022/07/31 01:50:57;;;;;;;;;1.75;1.75;;;;;22.57;50.58;101711.25;5075942;28;46297;-85
2022/07/31 01:53:24;;;;;;;;;3.50;3.50;;;;;22.60;51.17;101715.50;5092069;27;45955;-86
2022/07/31 01:55:52;;;;;;;;;6.75;2.25;;;;;22.49;51.11;101708.25;5076476;28;45344;-86
2022/07/31 01:58:19;;;;;;;;;3.75;1.50;;;;;22.54;51.29;101714.09;5109560;27;45417;-86
2022/07/31 02:00:46;;;;;;;;;8.25;4.00;;;;;22.51;51.32;101713.44;5058115;28;47128;-86
2022/07/31 02:03:12;;;;;;;;;7.00;6.50;;;;;22.47;51.33;101717.25;5074968;28;45678;-85
2022/07/31 02:05:40;;;;;;;;;3.00;2.75;;;;;22.44;51.65;101713.00;5074441;27;45594;-85
2022/07/31 02:08:06;;;;;;;;;6.00;2.75;;;;;22.38;51.54;101711.59;5075120;28;45322;-86
2022/07/31 02:10:32;;;;;;;;;3.50;1.75;;;;;22.44;51.66;101725.41;5075711;28;56288;-85
2022/07/31 02:12:59;;;;;;;;;1.75;1.75;;;;;22.41;51.31;101721.97;5074925;28;45362;-85
2022/07/31 02:15:25;;;;;;;;;4.00;3.75;;;;;22.37;51.98;101719.63;5075380;28;45328;-85
2022/07/31 02:17:51;;;;;;;;;6.00;4.00;;;;;22.33;52.06;101712.84;5074590;28;49141;-85
2022/07/31 02:20:18;;;;;;;;;5.00;4.00;;;;;22.30;51.84;101711.19;5074434;28;46216;-86
2022/07/31 02:22:43;;;;;;;;;2.75;2.00;;;;;22.29;51.46;101717.47;5074621;28;45390;-86
2022/07/31 02:25:08;;;;;;;;;4.75;3.75;;;;;22.24;51.84;101707.09;5074670;28;45395;-85
2022/07/31 02:27:35;;;;;;;;;4.25;2.25;;;;;22.23;51.99;101712.50;5074553;28;51685;-86
2022/07/31 02:30:02;;;;;;;;;1.00;1.00;;;;;22.19;52.20;101729.56;5074799;28;46350;-85
2022/07/31 02:32:29;;;;;;;;;2.25;1.75;;;;;22.17;52.61;101736.75;5074404;28;45298;-85
2022/07/31 02:34:55;;;;;;;;;2.00;2.00;;;;;22.11;52.74;101724.75;5074392;28;45382;-85
2022/07/31 02:37:22;;;;;;;;;3.50;1.50;;;;;22.04;52.92;101718.09;5108852;27;45245;-85
2022/07/31 02:39:49;;;;;;;;;1.50;1.50;;;;;22.02;52.82;101720.84;5108629;27;47136;-86
2022/07/31 02:42:16;;;;;;;;;0.25;0.25;;;;;21.88;53.22;101702.31;5074384;28;45521;-85
2022/07/31 02:44:41;;;;;;;;;2.75;1.00;;;;;21.86;52.89;101709.50;5094240;27;45391;-86
2022/07/31 02:47:07;;;;;;;;;0.25;0.25;;;;;21.81;53.37;101700.97;5078432;28;45449;-85
2022/07/31 02:49:33;;;;;;;;;0.75;0.75;;;;;21.82;53.84;101705.31;5111801;27;45544;-86
2022/07/31 02:51:58;;;;;;;;;1.25;1.25;;;;;21.88;53.24;101720.00;5095060;27;45752;-86
2022/07/31 02:54:24;;;;;;;;;1.00;1.00;;;;;21.90;53.27;101715.44;5079468;28;45528;-86
2022/07/31 02:56:51;;;;;;;;;1.00;1.00;;;;;21.88;53.02;101702.31;5061095;28;45459;-86
2022/07/31 02:59:16;;;;;;;;;1.00;1.00;;;;;21.87;53.44;101694.44;5094966;27;48314;-86
2022/07/31 03:01:42;;;;;;;;;2.00;1.00;;;;;21.98;53.48;101702.59;5079210;28;45799;-87
2022/07/31 03:04:08;;;;;;;;;1.75;1.75;;;;;21.97;53.43;101716.78;5095064;27;45366;-86
2022/07/31 03:06:34;;;;;;;;;1.00;1.00;;;;;21.87;53.51;101702.41;5079015;27;45579;-85
2022/07/31 03:08:59;;;;;;;;;1.00;1.00;;;;;21.85;54.08;101697.19;5077680;28;45879;-85
2022/07/31 03:11:25;;;;;;;;;2.50;2.00;;;;;21.93;53.17;101704.66;5094837;27;45511;-85
2022/07/31 03:13:52;;;;;;;;;1.25;1.00;;;;;21.95;54.31;101713.38;5078984;28;45451;-86
2022/07/31 03:16:18;;;;;;;;;2.25;2.25;;;;;21.85;53.56;101695.38;5094738;27;45438;-86
2022/07/31 03:18:44;;;;;;;;;4.50;3.00;;;;;21.80;53.95;101671.00;5059938;28;53267;-86
2022/07/31 03:21:10;;;;;;;;;5.00;4.00;;;;;21.93;53.75;101689.59;5077476;28;45424;-85
2022/07/31 03:23:36;;;;;;;;;4.00;2.50;;;;;21.87;54.74;101678.56;5077524;28;45513;-86
2022/07/31 03:26:02;;;;;;;;;4.25;3.50;;;;;21.88;54.27;101693.50;5077740;28;45495;-85
2022/07/31 03:28:29;;;;;;;;;4.75;3.00;;;;;21.91;54.58;101688.84;5077386;28;45309;-86
2022/07/31 03:30:55;;;;;;;;;6.00;3.25;;;;;21.84;54.21;101680.44;5062410;27;45741;-85
2022/07/31 03:33:21;;;;;;;;;6.00;5.00;;;;;21.79;54.69;101653.38;5077254;28;45370;-86
2022/07/31 03:35:47;;;;;;;;;4.50;4.50;;;;;21.86;55.08;101669.75;5060518;28;45486;-86
2022/07/31 03:38:13;;;;;;;;;6.25;4.00;;;;;21.76;54.97;101658.00;5077236;28;45487;-86
2022/07/31 03:40:38;;;;;;;;;5.00;4.00;;;;;21.76;55.03;101674.75;5094230;27;45476;-86
2022/07/31 03:43:04;;;;;;;;;6.75;5.25;;;;;21.73;54.58;101674.97;5111727;27;45448;-85
2022/07/31 03:45:31;;;;;;;;;6.00;5.00;;;;;21.69;55.33;101669.91;5076291;28;69354;-86
2022/07/31 03:47:56;;;;;;;;;7.00;6.00;;;;;21.71;55.59;101676.84;5093661;27;48411;-86
2022/07/31 03:50:22;;;;;;;;;6.00;5.25;;;;;21.76;55.04;101681.84;5076962;28;45359;-85
2022/07/31 03:52:48;;;;;;;;;5.50;5.50;;;;;21.76;55.21;101677.41;5077217;28;45374;-86
2022/07/31 03:55:14;;;;;;;;;8.00;7.00;;;;;21.79;55.14;101671.06;5111506;27;45472;-86
2022/07/31 03:57:41;;;;;;;;;7.50;7.00;;;;;21.69;55.20;101657.50;5076895;27;48132;-86
2022/07/31 04:00:07;;;;;;;;;7.75;6.50;;;;;21.81;55.56;101672.69;5076954;28;45667;-85
2022/07/31 04:02:33;;;;;;;;;8.50;8.00;;;;;21.78;54.95;101656.09;5077944;27;45525;-85
2022/07/31 04:04:58;;;;;;;;;8.50;8.00;;;;;21.78;55.59;101659.59;5110057;27;64844;-85
2022/07/31 04:07:23;;;;;;;;;9.00;7.25;;;;;21.67;56.00;101648.81;5078097;28;45455;-85
2022/07/31 04:09:49;;;;;;;;;7.75;7.00;;;;;21.69;55.70;101659.31;5076535;28;45453;-85
2022/07/31 04:12:15;;;;;;;;;6.75;5.25;;;;;21.66;55.86;101652.44;5060006;28;45348;-86
2022/07/31 04:14:40;;;;;;;;;8.25;7.75;;;;;21.67;55.61;101662.06;5076591;28;45388;-85
2022/07/31 04:17:06;;;;;;;;;7.00;6.50;;;;;21.78;55.93;101677.31;5077428;28;46165;-85
2022/07/31 04:19:31;;;;;;;;;8.25;7.25;;;;;21.77;55.32;101665.88;5077979;28;45273;-85
2022/07/31 04:21:57;;;;;;;;;6.00;5.50;;;;;21.68;55.56;101660.28;5077865;28;45325;-84
2022/07/31 04:24:23;;;;;;;;;5.75;5.00;;;;;21.76;55.60;101676.56;5075596;27;45287;-86
2022/07/31 04:26:49;;;;;;;;;7.00;5.00;;;;;21.70;55.83;101674.28;5076462;28;48057;-86
2022/07/31 04:29:14;;;;;;;;;8.50;5.75;;;;;21.69;55.89;101681.38;5059417;28;45371;-86
2022/07/31 04:31:40;;;;;;;;;2.00;2.00;;;;;21.61;55.94;101673.88;5076032;28;45756;-85
2022/07/31 04:34:05;;;;;;;;;4.25;4.00;;;;;21.58;56.41;101675.88;5078064;28;45414;-86
2022/07/31 04:36:30;;;;;;;;;3.00;3.00;;;;;21.61;56.12;101673.03;5077591;28;45332;-85
2022/07/31 04:38:59;;;;;;;;;4.00;4.00;;;;;21.57;55.93;101667.06;5110543;27;48243;-86
2022/07/31 04:41:25;;;;;;;;;3.00;3.00;;;;;21.63;55.95;101668.50;5077729;28;45317;-85
2022/07/31 04:43:50;;;;;;;;;5.25;4.00;;;;;21.68;56.36;101670.88;5110834;27;45363;-86
2022/07/31 04:46:15;;;;;;;;;5.75;4.00;;;;;21.68;55.83;101668.25;5109888;27;48257;-85
2022/07/31 04:48:41;;;;;;;;;4.00;4.00;;;;;21.65;56.29;101659.50;5110585;27;45549;-85
2022/07/31 04:51:06;;;;;;;;;3.75;3.75;;;;;21.75;55.92;101673.06;5077421;28;45410;-86
2022/07/31 04:53:31;;;;;;;;;4.00;4.00;;;;;21.79;55.79;101682.53;5075963;28;48786;-86
2022/07/31 04:58:41;;;;;;;;;3.75;3.00;;;;;21.76;56.11;101665.97;5077289;28;45437;-86
2022/07/31 05:01:06;;;;;;;;;5.00;4.00;;;;;21.84;55.63;101676.91;5109968;27;45392;-85
2022/07/31 05:03:31;;;;;;;;;3.50;3.00;;;;;21.81;55.82;101672.69;5092917;27;45397;-86
2022/07/31 05:06:08;;;;;;;;;2.00;2.00;;;;;21.81;56.02;101671.84;5075359;28;46693;-85
2022/07/31 05:08:33;;;;;;;;;3.00;3.00;;;;;21.83;55.99;101672.59;5076074;28;45843;-86
2022/07/31 05:13:42;;;;;;;;;6.00;4.00;;;;;21.89;55.46;101669.53;5076896;28;45283;-86
2022/07/31 05:16:11;;;;;;;;;3.00;3.00;;;;;21.97;54.90;101690.28;5075761;28;46164;-86
2022/07/31 05:18:36;;;;;;;;;4.00;4.00;;;;;21.98;55.27;101681.38;5075713;28;45533;-86
2022/07/31 05:21:01;;;;;;;;;6.25;3.75;;;;;21.95;54.80;101674.50;5075817;28;45326;-85
2022/07/31 05:23:27;;;;;;;;;5.00;5.00;;;;;21.93;55.51;101676.34;5076809;28;45400;-85
2022/07/31 05:25:53;;;;;;;;;3.00;3.00;;;;;21.99;55.41;101686.59;5058658;28;46085;-85
2022/07/31 05:28:18;;;;;;;;;4.00;3.00;;;;;21.90;55.65;101663.31;5075812;28;58514;-85
2022/07/31 05:30:43;;;;;;;;;5.50;4.00;;;;;21.98;55.44;101676.94;5072666;28;45438;-85
2022/07/31 05:33:09;;;;;;;;;2.75;2.75;;;;;22.01;55.52;101675.91;5038503;28;45473;-85
2022/07/31 05:35:34;;;;;;;;;4.25;3.50;;;;;22.04;56.18;101684.50;5055824;28;55730;-85
2022/07/31 05:37:59;;;;;;;;;4.25;4.00;;;;;22.04;55.76;101681.00;5056414;28;45433;-85
2022/07/31 05:40:25;;;;;;;;;3.50;3.50;;;;;22.04;56.05;101678.34;5038240;28;52509;-85
2022/07/31 05:42:51;;;;;;;;;6.00;3.25;;;;;22.04;55.76;101670.38;5037808;28;45491;-85
2022/07/31 05:45:16;;;;;;;;;4.50;4.00;;;;;21.98;55.51;101662.84;5056075;28;45349;-85
2022/07/31 05:47:42;;;;;;;;;3.00;2.50;;;;;22.02;55.21;101672.28;5038288;28;45316;-85
2022/07/31 05:50:08;;;;;;;;;3.00;3.00;;;;;22.04;55.36;101681.84;5038136;28;45404;-85
2022/07/31 05:52:33;;;;;;;;;3.25;3.25;;;;;22.12;55.47;101691.13;5056246;28;45502;-85
2022/07/31 05:54:58;;;;;;;;;3.25;3.25;;;;;22.03;55.28;101674.00;5037994;28;46138;-85
2022/07/31 05:57:24;;;;;;;;;3.00;3.00;;;;;22.05;55.60;101688.00;5055909;28;45377;-85
2022/07/31 05:59:49;;;;;;;;;4.00;4.00;;;;;22.03;55.41;101674.84;5038099;28;45420;-86
2022/07/31 06:02:15;;;;;;;;;4.50;3.75;;;;;22.07;54.92;101674.66;5055975;28;46501;-85
2022/07/31 06:04:40;;;;;;;;;4.75;4.00;;;;;22.16;54.93;101674.94;5049184;28;54711;-86
2022/07/31 06:07:06;;;;;;;;;2.50;2.00;;;;;22.21;54.84;101677.28;5057882;28;45401;-85
2022/07/31 06:09:31;;;;;;;;;4.00;4.00;;;;;22.30;55.10;101675.88;5076198;28;45249;-85
2022/07/31 06:11:56;;;;;;;;;4.75;3.00;;;;;22.24;55.16;101680.59;5057617;28;47542;-86
2022/07/31 06:14:22;;;;;;;;;4.50;3.00;;;;;22.27;54.86;101679.59;5058076;28;45391;-86
2022/07/31 06:16:49;;;;;;;;;3.00;3.00;;;;;22.21;55.27;101679.94;5057886;28;45384;-86
2022/07/31 06:19:14;;;;;;;;;4.00;4.00;;;;;22.29;55.20;101675.03;5078126;28;45457;-85
2022/07/31 06:21:39;;;;;;;;;5.25;4.00;;;;;22.27;55.29;101682.25;5061430;28;45395;-86
2022/07/31 06:24:05;;;;;;;;;3.50;3.50;;;;;22.30;55.22;101681.19;5065118;28;45352;-85
2022/07/31 06:26:31;;;;;;;;;4.75;4.75;;;;;22.24;55.21;101688.53;5079222;28;45720;-85
2022/07/31 06:28:56;;;;;;;;;4.75;3.00;;;;;22.21;55.01;101678.16;5078511;28;45329;-86
2022/07/31 06:31:22;;;;;;;;;3.50;3.00;;;;;22.23;55.11;101667.41;5077799;28;53705;-85
2022/07/31 06:33:48;;;;;;;;;3.00;3.00;;;;;22.37;54.88;101688.66;5111941;27;60489;-86
2022/07/31 06:36:13;;;;;;;;;3.75;2.50;;;;;22.36;55.06;101678.13;5078530;28;45391;-85
2022/07/31 06:38:39;;;;;;;;;3.50;3.00;;;;;22.23;54.52;101670.94;5078616;28;45346;-86
2022/07/31 06:41:04;;;;;;;;;6.50;4.50;;;;;22.18;54.61;101678.34;5094790;27;45587;-86
2022/07/31 06:43:29;;;;;;;;;3.50;3.50;;;;;22.26;54.79;101682.34;5079290;28;46540;-86
2022/07/31 06:45:55;;;;;;;;;6.00;3.75;;;;;22.36;54.85;101691.41;5078150;28;45442;-85
2022/07/31 06:48:20;;;;;;;;;5.00;4.00;;;;;22.40;54.61;101687.63;5079710;28;45318;-86
2022/07/31 06:50:46;;;;;;;;;4.25;4.25;;;;;22.53;54.13;101695.63;5077704;28;55493;-85
2022/07/31 06:53:12;;;;;;;;;3.50;3.50;;;;;22.69;54.14;101706.09;5095016;27;46379;-85
2022/07/31 06:55:37;;;;;;;;;5.25;5.25;;;;;22.76;53.03;101702.09;5112183;27;45493;-86
2022/07/31 06:58:02;;;;;;;;;4.50;4.50;;;;;22.69;53.18;101701.66;5078091;27;45340;-85
2022/07/31 07:00:28;;;;;;;;;4.75;4.75;;;;;22.70;52.94;101710.47;5079327;28;45352;-86
2022/07/31 07:02:53;;;;;;;;;6.75;5.00;;;;;22.62;52.91;101697.69;5077876;28;45394;-86
2022/07/31 07:05:20;;;;;;;;;5.75;5.75;;;;;22.56;53.42;101690.97;5077707;27;45416;-86
2022/07/31 07:07:45;;;;;;;;;6.25;4.75;;;;;22.59;53.09;101687.28;5077844;28;45459;-85
2022/07/31 07:10:11;;;;;;;;;4.75;4.00;;;;;22.67;52.69;101692.09;5077276;28;45449;-85
2022/07/31 07:12:36;;;;;;;;;4.25;4.00;;;;;22.75;53.29;101695.97;5078593;28;55049;-84
2022/07/31 07:15:02;;;;;;;;;4.50;3.50;;;;;22.79;52.85;101692.16;5078546;28;49593;-85
2022/07/31 07:17:27;;;;;;;;;5.00;3.25;;;;;22.75;52.45;101688.00;5077826;27;45309;-85
2022/07/31 07:19:53;;;;;;;;;6.00;4.00;;;;;22.64;52.29;101681.66;5077644;28;45426;-85
2022/07/31 07:22:40;;;;;;;;;3.50;3.50;;;;;22.63;52.44;101707.34;5077503;28;46372;-92
2022/07/31 07:25:06;;;;;;;;;5.50;4.50;;;;;22.80;52.03;101715.06;5077614;28;45634;-82
2022/07/31 07:27:32;;;;;;;;;5.00;4.50;;;;;22.91;51.81;101711.72;5082394;27;45522;-81
2022/07/31 07:29:58;;;;;;;;;7.25;5.25;;;;;23.07;51.85;101718.69;5076724;27;69410;-80
2022/07/31 07:32:24;;;;;;;;;5.25;3.75;;;;;23.08;51.46;101715.94;5078035;28;71679;-80
2022/07/31 07:34:49;;;;;;;;;5.25;5.00;;;;;23.12;51.54;101717.47;5078679;27;45563;-80
2022/07/31 07:37:14;;;;;;;;;4.25;4.25;;;;;23.21;51.52;101708.00;5077673;27;69459;-79
2022/07/31 07:39:39;;;;;;;;;8.25;6.25;;;;;23.27;51.04;101712.94;5078059;27;51172;-79
2022/07/31 07:42:06;;;;;;;;;4.00;4.00;;;;;23.28;51.23;101711.13;5079335;27;46066;-79
2022/07/31 07:44:31;;;;;;;;;4.25;4.25;;;;;23.31;50.53;101724.16;5080980;27;64432;-79
2022/07/31 07:46:56;;;;;;;;;4.00;3.50;;;;;23.38;50.74;101715.72;5088955;27;69922;-80
2022/07/31 07:49:21;;;;;;;;;4.50;4.50;;;;;23.37;50.77;101711.34;5081149;27;67132;-80
2022/07/31 07:51:47;;;;;;;;;5.00;5.00;;;;;23.42;50.58;101718.13;5089185;27;60270;-80
2022/07/31 07:54:14;;;;;;;;;7.00;5.00;;;;;23.41;50.63;101721.75;5090950;27;67475;-79
2022/07/31 07:56:39;;;;;;;;;5.00;4.50;;;;;23.47;50.86;101724.84;5088546;27;45307;-80
2022/07/31 07:59:04;;;;;;;;;5.50;3.75;;;;;23.55;50.55;101724.31;5078393;27;45596;-80
2022/07/31 08:01:30;;;;;;;;;6.25;3.75;;;;;23.61;50.28;101715.09;5076943;28;72003;-81
2022/07/31 08:03:55;;;;;;;;;6.50;5.25;;;;;23.67;50.10;101722.63;5077827;27;45499;-80
2022/07/31 08:06:22;;;;;;;;;3.25;3.00;;;;;23.67;50.12;101727.97;5077816;28;45269;-80
2022/07/31 08:08:47;;;;;;;;;6.00;4.50;;;;;23.65;49.94;101727.22;5076419;28;45778;-81
2022/07/31 08:11:12;;;;;;;;;5.50;5.00;;;;;23.63;50.09;101718.50;5077651;28;54211;-80
2022/07/31 08:13:38;;;;;;;;;5.00;5.00;;;;;23.69;50.26;101729.53;5076121;27;66461;-80
2022/07/31 08:16:03;;;;;;;;;4.00;4.00;;;;;23.75;50.03;101731.81;5098508;27;45315;-80
2022/07/31 08:18:30;;;;;;;;;7.50;6.00;;;;;23.80;49.73;101725.34;5086119;27;45403;-80
2022/07/31 08:20:55;;;;;;;;;5.00;4.50;;;;;23.84;49.70;101724.16;5077427;27;46414;-81
2022/07/31 08:23:21;;;;;;;;;5.75;5.00;;;;;23.83;49.70;101730.41;5078032;27;47978;-80
2022/07/31 08:25:46;;;;;;;;;6.75;4.25;;;;;23.84;49.35;101730.31;5077081;28;61674;-81
2022/07/31 08:28:11;;;;;;;;;6.25;5.50;;;;;23.84;49.66;101726.81;5077820;27;59662;-80
2022/07/31 08:30:37;;;;;;;;;4.25;4.25;;;;;23.90;49.71;101723.72;5093955;27;69315;-80
2022/07/31 08:33:02;;;;;;;;;6.00;5.75;;;;;24.02;49.26;101730.00;5076316;27;73096;-80
2022/07/31 08:35:27;;;;;;;;;5.00;4.75;;;;;24.08;49.14;101726.91;5078823;27;45296;-81
2022/07/31 08:37:53;;;;;;;;;5.00;5.00;;;;;24.13;49.33;101722.13;5076899;27;50754;-80
2022/07/31 08:40:18;;;;;;;;;6.75;4.50;;;;;24.09;48.98;101713.50;5082459;27;69427;-79
2022/07/31 08:42:44;;;;;;;;;4.75;4.75;;;;;24.18;49.05;101722.63;5074216;28;73074;-80
2022/07/31 08:45:10;;;;;;;;;8.50;6.00;;;;;24.34;49.36;101715.25;5077224;27;45340;-83
2022/07/31 08:47:36;;;;;;;;;6.75;5.00;;;;;24.45;48.53;101714.50;5077373;27;45340;-80
2022/07/31 08:50:04;;;;;;;;;5.75;5.25;;;;;24.57;48.30;101706.59;5077992;27;46351;-80
2022/07/31 08:52:31;;;;;;;;;5.00;5.00;;;;;24.67;48.08;101719.13;5076904;28;45781;-79
2022/07/31 08:54:57;;;;;;;;;6.50;3.75;;;;;24.72;47.92;101727.63;5076919;27;45414;-80
2022/07/31 08:57:22;;;;;;;;;4.25;4.25;;;;;24.73;47.84;101718.69;5075200;28;67274;-80
2022/07/31 08:59:51;;;;;;;;;8.00;5.75;;;;;24.83;47.26;101716.22;5084794;27;45987;-80
2022/07/31 09:02:17;;;;;;;;;8.25;5.50;;;;;24.95;46.45;101717.09;5097227;27;45297;-80
2022/07/31 09:04:42;;;;;;;;;7.25;6.50;;;;;25.01;46.84;101721.13;5087481;27;45427;-80
2022/07/31 09:07:14;;;;;;;;;5.00;4.00;;;;;24.97;46.79;101725.81;5063696;27;45395;-80
2022/07/31 09:09:44;;;;;;;;;7.00;6.00;;;;;24.81;46.87;101714.59;5082997;27;46770;-80
2022/07/31 09:12:10;;;;;;;;;8.75;6.25;;;;;24.57;46.97;101715.44;5090502;27;45717;-80
2022/07/31 09:14:35;;;;;;;;;6.00;4.50;;;;;24.35;47.27;101713.47;5077056;28;45343;-80
2022/07/31 09:17:02;;;;;;;;;6.25;5.75;;;;;24.23;47.82;101723.16;5075839;28;70229;-80
2022/07/31 09:19:41;;;;;;;;;6.75;6.75;;;;;24.09;47.99;101724.16;5083857;27;46184;-79
2022/07/31 09:22:18;;;;;;;;;7.25;7.25;;;;;23.90;47.97;101713.97;5076347;27;45735;-81
2022/07/31 09:24:43;;;;;;;;;6.00;6.00;;;;;23.86;48.05;101708.94;5058989;27;45450;-80
2022/07/31 09:27:09;;;;;;;;;5.50;5.25;;;;;23.91;48.26;101720.13;5096171;27;69428;-80
2022/07/31 09:29:41;;;;;;;;;5.00;5.00;;;;;23.98;48.18;101710.75;5096039;27;47735;-80
2022/07/31 09:32:15;;;;;;;;;8.50;7.00;;;;;24.03;48.25;101711.25;5081088;27;46238;-80
2022/07/31 09:34:41;;;;;;;;;8.75;6.75;;;;;24.10;47.99;101709.03;5075168;28;45370;-80
2022/07/31 09:37:14;;;;;;;;;6.75;6.00;;;;;24.27;47.78;101706.00;5082815;27;45311;-80
2022/07/31 09:39:40;;;;;;;;;4.00;4.00;;;;;24.44;47.96;101711.94;5096925;27;46234;-80
2022/07/31 09:42:06;;;;;;;;;5.75;4.75;;;;;24.54;47.34;101710.34;5078603;27;45447;-80
2022/07/31 09:44:40;;;;;;;;;9.75;6.50;;;;;24.52;47.39;101714.94;5075158;28;45482;-79
2022/07/31 09:47:06;;;;;;;;;7.00;6.50;;;;;24.60;47.36;101719.69;5077223;27;45464;-80
2022/07/31 09:49:33;;;;;;;;;7.50;6.50;;;;;24.75;47.28;101710.56;5093672;27;45319;-80
2022/07/31 09:52:02;;;;;;;;;9.75;6.75;;;;;24.95;47.13;101713.59;5096574;27;45840;-80
2022/07/31 09:54:30;;;;;;;;;8.00;6.00;;;;;25.01;46.37;101721.97;5093902;27;45320;-80
2022/07/31 09:56:56;;;;;;;;;7.25;6.00;;;;;24.85;46.32;101727.59;5082083;27;45619;-80
2022/07/31 09:59:21;;;;;;;;;7.25;7.00;;;;;24.75;46.88;101728.38;5078387;27;46655;-80
2022/07/31 10:01:47;;;;;;;;;7.00;6.00;;;;;24.71;47.04;101723.25;5096646;27;45495;-80
2022/07/31 10:04:16;;;;;;;;;7.75;7.00;;;;;24.87;47.05;101720.34;5088436;27;45502;-80
2022/07/31 10:06:42;;;;;;;;;9.00;7.25;;;;;25.06;46.69;101718.97;5074974;28;45536;-80
2022/07/31 10:09:08;;;;;;;;;8.00;6.00;;;;;25.21;46.20;101716.97;5076767;27;45350;-80
2022/07/31 10:11:34;;;;;;;;;6.25;6.25;;;;;25.29;45.68;101727.91;5093194;27;69421;-80
2022/07/31 10:14:00;;;;;;;;;7.00;6.00;;;;;25.23;45.80;101723.03;5095755;27;54440;-80
2022/07/31 10:16:27;;;;;;;;;5.00;5.00;;;;;25.24;46.09;101717.63;5086850;27;45404;-81
2022/07/31 10:18:56;;;;;;;;;5.50;5.50;;;;;25.33;45.63;101715.19;5074511;27;46353;-81
2022/07/31 10:21:23;;;;;;;;;7.75;6.25;;;;;25.46;45.93;101724.81;5057533;27;46072;-80
2022/07/31 10:23:49;;;;;;;;;8.25;6.00;;;;;25.55;45.22;101717.91;5075399;27;45406;-80
2022/07/31 10:26:14;;;;;;;;;6.00;6.00;;;;;25.63;45.14;101712.84;5108070;27;68905;-81
2022/07/31 10:28:40;;;;;;;;;6.75;4.00;;;;;25.60;45.24;101699.75;5075721;27;75417;-80
2022/07/31 10:31:06;;;;;;;;;7.75;6.00;;;;;25.68;45.10;101709.81;5078106;27;59286;-80
2022/07/31 10:33:33;;;;;;;;;5.00;5.00;;;;;25.57;44.83;101710.66;5094822;27;45252;-80
2022/07/31 10:36:10;;;;;;;;;7.50;6.50;;;;;25.49;45.11;101700.59;5093190;27;45501;-78
2022/07/31 10:38:44;;;;;;;;;5.25;5.25;;;;;25.50;45.86;101704.97;5075446;27;46162;-82
2022/07/31 10:41:46;;;;;;;;;6.00;6.00;;;;;25.46;45.53;101705.28;5085515;27;45683;-81
2022/07/31 10:44:35;;;;;;;;;6.75;6.00;;;;;25.52;45.65;101710.19;5032923;28;45550;-82
2022/07/31 10:47:18;;;;;;;;;5.00;5.00;;;;;25.48;46.07;101698.03;5032428;28;45568;-81
2022/07/31 10:49:46;;;;;;;;;7.75;5.50;;;;;25.55;45.79;101707.25;5036072;28;46174;-83
2022/07/31 10:52:12;;;;;;;;;6.25;5.00;;;;;25.58;45.94;101703.53;5034025;28;45798;-83
2022/07/31 10:54:39;;;;;;;;;6.50;6.50;;;;;25.64;45.62;101700.38;5016387;28;45367;-85
2022/07/31 10:57:04;;;;;;;;;8.00;6.00;;;;;25.61;45.36;101684.59;5034096;28;45382;-84
2022/07/31 10:59:29;;;;;;;;;4.75;4.75;;;;;25.60;45.20;101686.44;5015516;28;67869;-85
2022/07/31 11:01:55;;;;;;;;;4.00;4.00;;;;;25.69;45.17;101688.38;5015890;28;45337;-84
2022/07/31 11:04:29;;;;;;;;;4.00;4.00;;;;;25.77;44.98;101689.59;5028160;28;45763;-84
2022/07/31 11:06:54;;;;;;;;;8.75;5.50;;;;;25.76;45.49;101685.22;5037061;28;45499;-87
2022/07/31 11:09:21;;;;;;;;;11.50;5.00;;;;;25.77;45.32;101684.25;5055436;28;46129;-88
2022/07/31 11:11:47;;;;;;;;;6.00;6.00;;;;;25.80;45.21;101684.88;5040163;28;45774;-86
2022/07/31 11:14:13;;;;;;;;;5.25;3.00;;;;;25.85;44.83;101690.69;5039423;28;45322;-89
2022/07/31 11:16:58;;;;;;;;;5.25;3.75;;;;;25.98;45.07;101692.41;5055128;28;45512;-91
2022/07/31 11:19:24;;;;;;;;;3.00;2.00;;;;;26.06;44.77;101690.00;5072606;27;46608;-90
2022/07/31 11:21:52;;;;;;;;;4.25;4.25;;;;;26.10;44.60;101686.09;5065788;28;45368;-89
2022/07/31 11:24:20;;;;;;;;;5.75;4.00;;;;;26.14;44.78;101682.22;5078264;28;45278;-84
2022/07/31 11:26:54;;;;;;;;;7.50;5.25;;;;;26.21;44.47;101677.25;5079993;27;45470;-86